sensor_id;sensor_type;location;lat;lon;timestamp;P1;durP1;ratioP1;P2;durP2;ratioP2
14247;SDS011;7208;49.826;6.004;2023-04-22T00:01:01;4.07;;;3.67;;
14247;SDS011;7208;49.826;6.004;2023-04-22T00:03:27;7.13;;;4.17;;
14247;SDS011;7208;49.826;6.004;2023-04-22T00:05:53;6.53;;;4.57;;
14247;SDS011;7208;49.826;6.004;2023-04-22T00:08:19;4.60;;;4.20;;
14247;SDS011;7208;49.826;6.004;2023-04-22T00:10:44;4.90;;;4.40;;
14247;SDS011;7208;49.826;6.004;2023-04-22T00:13:10;4.27;;;3.87;;
14247;SDS011;7208;49.826;6.004;2023-04-22T00:15:36;4.10;;;3.80;;
14247;SDS011;7208;49.826;6.004;2023-04-22T00:18:02;5.33;;;3.90;;
14247;SDS011;7208;49.826;6.004;2023-04-22T00:20:27;3.50;;;3.13;;
14247;SDS011;7208;49.826;6.004;2023-04-22T00:22:53;3.60;;;3.30;;
14247;SDS011;7208;49.826;6.004;2023-04-22T00:25:19;3.43;;;3.17;;
14247;SDS011;7208;49.826;6.004;2023-04-22T00:27:45;3.10;;;2.87;;
14247;SDS011;7208;49.826;6.004;2023-04-22T00:30:10;3.27;;;2.97;;
14247;SDS011;7208;49.826;6.004;2023-04-22T00:32:36;3.10;;;2.90;;
14247;SDS011;7208;49.826;6.004;2023-04-22T00:35:02;2.57;;;2.37;;
14247;SDS011;7208;49.826;6.004;2023-04-22T00:37:28;2.77;;;2.57;;
14247;SDS011;7208;49.826;6.004;2023-04-22T00:39:54;3.33;;;3.03;;
14247;SDS011;7208;49.826;6.004;2023-04-22T00:42:21;3.30;;;3.00;;
14247;SDS011;7208;49.826;6.004;2023-04-22T00:44:47;3.60;;;3.30;;
14247;SDS011;7208;49.826;6.004;2023-04-22T00:47:15;3.13;;;2.87;;
14247;SDS011;7208;49.826;6.004;2023-04-22T00:49:41;4.03;;;3.33;;
14247;SDS011;7208;49.826;6.004;2023-04-22T00:52:07;3.80;;;3.50;;
14247;SDS011;7208;49.826;6.004;2023-04-22T00:54:33;3.87;;;3.53;;
14247;SDS011;7208;49.826;6.004;2023-04-22T00:57:00;3.83;;;3.43;;
14247;SDS011;7208;49.826;6.004;2023-04-22T00:59:27;3.73;;;3.43;;
14247;SDS011;7208;49.826;6.004;2023-04-22T01:01:53;4.57;;;3.20;;
14247;SDS011;7208;49.826;6.004;2023-04-22T01:04:20;4.20;;;3.77;;
14247;SDS011;7208;49.826;6.004;2023-04-22T01:06:47;3.13;;;2.80;;
14247;SDS011;7208;49.826;6.004;2023-04-22T01:09:15;2.73;;;2.50;;
14247;SDS011;7208;49.826;6.004;2023-04-22T01:11:43;2.63;;;2.43;;
14247;SDS011;7208;49.826;6.004;2023-04-22T01:14:09;2.90;;;2.70;;
14247;SDS011;7208;49.826;6.004;2023-04-22T01:16:34;2.90;;;2.60;;
14247;SDS011;7208;49.826;6.004;2023-04-22T01:19:03;2.80;;;2.50;;
14247;SDS011;7208;49.826;6.004;2023-04-22T01:21:29;4.30;;;2.73;;
14247;SDS011;7208;49.826;6.004;2023-04-22T01:23:57;3.57;;;3.13;;
14247;SDS011;7208;49.826;6.004;2023-04-22T01:26:24;3.70;;;3.17;;
14247;SDS011;7208;49.826;6.004;2023-04-22T01:28:50;3.20;;;2.90;;
14247;SDS011;7208;49.826;6.004;2023-04-22T01:31:16;3.00;;;2.80;;
14247;SDS011;7208;49.826;6.004;2023-04-22T01:33:43;3.87;;;3.10;;
14247;SDS011;7208;49.826;6.004;2023-04-22T01:36:09;4.23;;;2.70;;
14247;SDS011;7208;49.826;6.004;2023-04-22T01:38:35;4.27;;;3.20;;
14247;SDS011;7208;49.826;6.004;2023-04-22T01:41:01;3.00;;;2.80;;
14247;SDS011;7208;49.826;6.004;2023-04-22T01:43:27;3.33;;;2.97;;
14247;SDS011;7208;49.826;6.004;2023-04-22T01:45:57;3.90;;;3.53;;
14247;SDS011;7208;49.826;6.004;2023-04-22T01:48:25;3.87;;;3.57;;
14247;SDS011;7208;49.826;6.004;2023-04-22T01:50:51;4.50;;;4.17;;
14247;SDS011;7208;49.826;6.004;2023-04-22T01:53:17;3.43;;;3.13;;
14247;SDS011;7208;49.826;6.004;2023-04-22T01:55:42;4.37;;;3.80;;
14247;SDS011;7208;49.826;6.004;2023-04-22T01:58:08;4.20;;;3.77;;
14247;SDS011;7208;49.826;6.004;2023-04-22T02:00:34;4.73;;;4.33;;
14247;SDS011;7208;49.826;6.004;2023-04-22T02:03:00;4.20;;;3.90;;
14247;SDS011;7208;49.826;6.004;2023-04-22T02:05:26;5.33;;;3.80;;
14247;SDS011;7208;49.826;6.004;2023-04-22T02:07:51;4.73;;;4.13;;
14247;SDS011;7208;49.826;6.004;2023-04-22T02:10:18;4.77;;;4.17;;
14247;SDS011;7208;49.826;6.004;2023-04-22T02:12:44;5.17;;;3.93;;
14247;SDS011;7208;49.826;6.004;2023-04-22T02:15:10;4.10;;;3.80;;
14247;SDS011;7208;49.826;6.004;2023-04-22T02:17:36;3.70;;;3.40;;
14247;SDS011;7208;49.826;6.004;2023-04-22T02:20:02;4.80;;;4.30;;
14247;SDS011;7208;49.826;6.004;2023-04-22T02:22:29;5.10;;;4.60;;
14247;SDS011;7208;49.826;6.004;2023-04-22T02:24:55;10.47;;;4.10;;
14247;SDS011;7208;49.826;6.004;2023-04-22T02:27:21;4.10;;;3.80;;
14247;SDS011;7208;49.826;6.004;2023-04-22T02:29:47;6.27;;;4.57;;
14247;SDS011;7208;49.826;6.004;2023-04-22T02:32:12;4.33;;;4.00;;
14247;SDS011;7208;49.826;6.004;2023-04-22T02:34:39;5.97;;;4.63;;
14247;SDS011;7208;49.826;6.004;2023-04-22T02:37:05;7.27;;;4.73;;
14247;SDS011;7208;49.826;6.004;2023-04-22T02:39:30;5.17;;;4.40;;
14247;SDS011;7208;49.826;6.004;2023-04-22T02:41:56;4.40;;;4.00;;
14247;SDS011;7208;49.826;6.004;2023-04-22T02:44:22;4.87;;;4.43;;
14247;SDS011;7208;49.826;6.004;2023-04-22T02:46:47;4.30;;;3.90;;
14247;SDS011;7208;49.826;6.004;2023-04-22T02:49:13;5.10;;;4.13;;
14247;SDS011;7208;49.826;6.004;2023-04-22T02:51:39;6.27;;;4.93;;
14247;SDS011;7208;49.826;6.004;2023-04-22T02:54:04;5.07;;;4.57;;
14247;SDS011;7208;49.826;6.004;2023-04-22T02:56:30;5.00;;;4.50;;
14247;SDS011;7208;49.826;6.004;2023-04-22T02:58:56;5.60;;;4.97;;
14247;SDS011;7208;49.826;6.004;2023-04-22T03:01:21;5.00;;;4.50;;
14247;SDS011;7208;49.826;6.004;2023-04-22T03:03:47;5.43;;;4.67;;
14247;SDS011;7208;49.826;6.004;2023-04-22T03:06:12;6.23;;;4.23;;
14247;SDS011;7208;49.826;6.004;2023-04-22T03:08:38;5.33;;;4.27;;
14247;SDS011;7208;49.826;6.004;2023-04-22T03:11:04;6.53;;;4.70;;
14247;SDS011;7208;49.826;6.004;2023-04-22T03:13:30;5.13;;;4.20;;
14247;SDS011;7208;49.826;6.004;2023-04-22T03:15:55;5.67;;;5.17;;
14247;SDS011;7208;49.826;6.004;2023-04-22T03:18:21;6.40;;;4.53;;
14247;SDS011;7208;49.826;6.004;2023-04-22T03:20:47;5.87;;;5.27;;
14247;SDS011;7208;49.826;6.004;2023-04-22T03:23:13;5.87;;;5.33;;
14247;SDS011;7208;49.826;6.004;2023-04-22T03:25:39;6.80;;;5.10;;
14247;SDS011;7208;49.826;6.004;2023-04-22T03:28:05;5.00;;;4.60;;
14247;SDS011;7208;49.826;6.004;2023-04-22T03:30:30;5.97;;;5.47;;
14247;SDS011;7208;49.826;6.004;2023-04-22T03:32:56;6.17;;;5.57;;
14247;SDS011;7208;49.826;6.004;2023-04-22T03:35:22;7.60;;;5.77;;
14247;SDS011;7208;49.826;6.004;2023-04-22T03:37:48;5.60;;;5.00;;
14247;SDS011;7208;49.826;6.004;2023-04-22T03:40:13;5.27;;;4.80;;
14247;SDS011;7208;49.826;6.004;2023-04-22T03:42:39;4.90;;;4.50;;
14247;SDS011;7208;49.826;6.004;2023-04-22T03:45:05;5.60;;;5.10;;
14247;SDS011;7208;49.826;6.004;2023-04-22T03:47:31;5.50;;;5.00;;
14247;SDS011;7208;49.826;6.004;2023-04-22T03:49:56;6.23;;;5.63;;
14247;SDS011;7208;49.826;6.004;2023-04-22T03:52:22;6.43;;;5.00;;
14247;SDS011;7208;49.826;6.004;2023-04-22T03:54:48;6.17;;;4.83;;
14247;SDS011;7208;49.826;6.004;2023-04-22T03:57:13;5.97;;;4.73;;
14247;SDS011;7208;49.826;6.004;2023-04-22T03:59:39;6.43;;;5.17;;
14247;SDS011;7208;49.826;6.004;2023-04-22T04:02:05;6.73;;;5.53;;
14247;SDS011;7208;49.826;6.004;2023-04-22T04:04:31;5.37;;;4.67;;
14247;SDS011;7208;49.826;6.004;2023-04-22T04:06:58;7.97;;;5.27;;
14247;SDS011;7208;49.826;6.004;2023-04-22T04:09:24;5.63;;;5.13;;
14247;SDS011;7208;49.826;6.004;2023-04-22T04:11:50;6.90;;;6.20;;
14247;SDS011;7208;49.826;6.004;2023-04-22T04:14:16;6.60;;;6.00;;
14247;SDS011;7208;49.826;6.004;2023-04-22T04:16:41;7.23;;;6.23;;
14247;SDS011;7208;49.826;6.004;2023-04-22T04:19:07;6.17;;;5.57;;
14247;SDS011;7208;49.826;6.004;2023-04-22T04:21:33;7.50;;;5.30;;
14247;SDS011;7208;49.826;6.004;2023-04-22T04:23:59;5.77;;;5.10;;
14247;SDS011;7208;49.826;6.004;2023-04-22T04:26:24;6.87;;;6.27;;
14247;SDS011;7208;49.826;6.004;2023-04-22T04:28:51;5.87;;;5.27;;
14247;SDS011;7208;49.826;6.004;2023-04-22T04:31:17;6.87;;;6.17;;
14247;SDS011;7208;49.826;6.004;2023-04-22T04:33:43;8.13;;;6.03;;
14247;SDS011;7208;49.826;6.004;2023-04-22T04:36:10;6.83;;;6.13;;
14247;SDS011;7208;49.826;6.004;2023-04-22T04:38:36;6.67;;;5.97;;
14247;SDS011;7208;49.826;6.004;2023-04-22T04:41:01;6.60;;;5.87;;
14247;SDS011;7208;49.826;6.004;2023-04-22T04:43:27;6.80;;;6.07;;
14247;SDS011;7208;49.826;6.004;2023-04-22T04:45:53;6.30;;;5.67;;
14247;SDS011;7208;49.826;6.004;2023-04-22T04:48:19;7.00;;;6.03;;
14247;SDS011;7208;49.826;6.004;2023-04-22T04:50:44;6.53;;;5.50;;
14247;SDS011;7208;49.826;6.004;2023-04-22T04:53:11;7.40;;;6.07;;
14247;SDS011;7208;49.826;6.004;2023-04-22T04:55:37;6.40;;;5.80;;
14247;SDS011;7208;49.826;6.004;2023-04-22T04:58:04;6.47;;;5.43;;
14247;SDS011;7208;49.826;6.004;2023-04-22T05:00:29;6.90;;;5.97;;
14247;SDS011;7208;49.826;6.004;2023-04-22T05:02:55;7.23;;;6.53;;
14247;SDS011;7208;49.826;6.004;2023-04-22T05:05:21;7.07;;;6.37;;
14247;SDS011;7208;49.826;6.004;2023-04-22T05:07:46;5.93;;;5.33;;
14247;SDS011;7208;49.826;6.004;2023-04-22T05:10:12;6.50;;;5.80;;
14247;SDS011;7208;49.826;6.004;2023-04-22T05:12:38;5.90;;;5.30;;
14247;SDS011;7208;49.826;6.004;2023-04-22T05:15:04;7.37;;;5.10;;
14247;SDS011;7208;49.826;6.004;2023-04-22T05:17:30;5.60;;;4.90;;
14247;SDS011;7208;49.826;6.004;2023-04-22T05:19:56;7.43;;;6.50;;
14247;SDS011;7208;49.826;6.004;2023-04-22T05:22:22;6.03;;;5.50;;
14247;SDS011;7208;49.826;6.004;2023-04-22T05:24:48;13.23;;;10.43;;
14247;SDS011;7208;49.826;6.004;2023-04-22T05:27:13;9.50;;;8.43;;
14247;SDS011;7208;49.826;6.004;2023-04-22T05:29:39;11.97;;;9.60;;
14247;SDS011;7208;49.826;6.004;2023-04-22T05:32:05;9.27;;;8.37;;
14247;SDS011;7208;49.826;6.004;2023-04-22T05:34:32;8.73;;;7.87;;
14247;SDS011;7208;49.826;6.004;2023-04-22T05:36:58;8.70;;;7.47;;
14247;SDS011;7208;49.826;6.004;2023-04-22T05:39:23;8.53;;;7.47;;
14247;SDS011;7208;49.826;6.004;2023-04-22T05:41:49;8.63;;;7.60;;
14247;SDS011;7208;49.826;6.004;2023-04-22T05:44:15;9.40;;;7.37;;
14247;SDS011;7208;49.826;6.004;2023-04-22T05:46:41;7.40;;;6.70;;
14247;SDS011;7208;49.826;6.004;2023-04-22T05:49:07;8.83;;;7.93;;
14247;SDS011;7208;49.826;6.004;2023-04-22T05:51:32;8.40;;;7.70;;
14247;SDS011;7208;49.826;6.004;2023-04-22T05:53:58;8.80;;;8.03;;
14247;SDS011;7208;49.826;6.004;2023-04-22T05:56:23;8.90;;;8.10;;
14247;SDS011;7208;49.826;6.004;2023-04-22T05:58:49;7.67;;;6.97;;
14247;SDS011;7208;49.826;6.004;2023-04-22T06:01:15;7.00;;;6.30;;
14247;SDS011;7208;49.826;6.004;2023-04-22T06:03:40;7.90;;;7.20;;
14247;SDS011;7208;49.826;6.004;2023-04-22T06:06:06;6.63;;;6.03;;
14247;SDS011;7208;49.826;6.004;2023-04-22T06:08:32;7.23;;;6.50;;
14247;SDS011;7208;49.826;6.004;2023-04-22T06:10:57;6.77;;;6.17;;
14247;SDS011;7208;49.826;6.004;2023-04-22T06:13:23;6.87;;;6.27;;
14247;SDS011;7208;49.826;6.004;2023-04-22T06:15:49;5.60;;;5.20;;
14247;SDS011;7208;49.826;6.004;2023-04-22T06:18:15;5.30;;;4.87;;
14247;SDS011;7208;49.826;6.004;2023-04-22T06:20:40;8.93;;;5.40;;
14247;SDS011;7208;49.826;6.004;2023-04-22T06:23:06;12.30;;;6.17;;
14247;SDS011;7208;49.826;6.004;2023-04-22T06:25:32;5.57;;;5.07;;
14247;SDS011;7208;49.826;6.004;2023-04-22T06:27:58;5.80;;;5.20;;
14247;SDS011;7208;49.826;6.004;2023-04-22T06:30:23;4.90;;;4.40;;
14247;SDS011;7208;49.826;6.004;2023-04-22T06:32:53;8.37;;;5.33;;
14247;SDS011;7208;49.826;6.004;2023-04-22T06:35:19;11.00;;;5.97;;
14247;SDS011;7208;49.826;6.004;2023-04-22T06:37:45;13.90;;;5.67;;
14247;SDS011;7208;49.826;6.004;2023-04-22T06:40:12;8.67;;;4.10;;
14247;SDS011;7208;49.826;6.004;2023-04-22T06:42:38;7.70;;;3.90;;
14247;SDS011;7208;49.826;6.004;2023-04-22T06:45:04;8.10;;;4.80;;
14247;SDS011;7208;49.826;6.004;2023-04-22T06:47:30;3.77;;;3.47;;
14247;SDS011;7208;49.826;6.004;2023-04-22T06:49:56;4.50;;;4.00;;
14247;SDS011;7208;49.826;6.004;2023-04-22T06:52:22;4.07;;;3.77;;
14247;SDS011;7208;49.826;6.004;2023-04-22T06:54:47;3.93;;;3.53;;
14247;SDS011;7208;49.826;6.004;2023-04-22T06:57:13;2.80;;;2.60;;
14247;SDS011;7208;49.826;6.004;2023-04-22T06:59:39;3.93;;;3.63;;
14247;SDS011;7208;49.826;6.004;2023-04-22T07:02:05;3.37;;;2.77;;
14247;SDS011;7208;49.826;6.004;2023-04-22T07:04:31;2.30;;;2.10;;
14247;SDS011;7208;49.826;6.004;2023-04-22T07:06:57;2.93;;;2.70;;
14247;SDS011;7208;49.826;6.004;2023-04-22T07:09:23;1.90;;;1.80;;
14247;SDS011;7208;49.826;6.004;2023-04-22T07:11:48;2.67;;;2.10;;
14247;SDS011;7208;49.826;6.004;2023-04-22T07:14:14;1.93;;;1.73;;
14247;SDS011;7208;49.826;6.004;2023-04-22T07:16:40;3.27;;;1.57;;
14247;SDS011;7208;49.826;6.004;2023-04-22T07:19:05;2.77;;;1.50;;
14247;SDS011;7208;49.826;6.004;2023-04-22T07:21:31;1.40;;;1.30;;
14247;SDS011;7208;49.826;6.004;2023-04-22T07:23:57;1.50;;;1.40;;
14247;SDS011;7208;49.826;6.004;2023-04-22T07:26:23;2.37;;;1.63;;
14247;SDS011;7208;49.826;6.004;2023-04-22T07:28:49;2.77;;;1.30;;
14247;SDS011;7208;49.826;6.004;2023-04-22T07:31:14;1.33;;;1.27;;
14247;SDS011;7208;49.826;6.004;2023-04-22T07:33:40;1.43;;;1.33;;
14247;SDS011;7208;49.826;6.004;2023-04-22T07:36:05;1.70;;;1.60;;
14247;SDS011;7208;49.826;6.004;2023-04-22T07:38:31;1.13;;;1.03;;
14247;SDS011;7208;49.826;6.004;2023-04-22T07:40:57;1.57;;;1.13;;
14247;SDS011;7208;49.826;6.004;2023-04-22T07:43:23;1.27;;;1.10;;
14247;SDS011;7208;49.826;6.004;2023-04-22T07:45:48;1.30;;;1.20;;
14247;SDS011;7208;49.826;6.004;2023-04-22T07:48:14;1.33;;;1.20;;
14247;SDS011;7208;49.826;6.004;2023-04-22T07:50:40;1.00;;;1.00;;
14247;SDS011;7208;49.826;6.004;2023-04-22T07:53:05;1.10;;;1.00;;
14247;SDS011;7208;49.826;6.004;2023-04-22T07:55:31;1.73;;;1.30;;
14247;SDS011;7208;49.826;6.004;2023-04-22T07:57:57;1.20;;;1.10;;
14247;SDS011;7208;49.826;6.004;2023-04-22T08:00:24;2.70;;;1.00;;
14247;SDS011;7208;49.826;6.004;2023-04-22T08:02:50;1.30;;;1.20;;
14247;SDS011;7208;49.826;6.004;2023-04-22T08:05:16;0.40;;;0.40;;
14247;SDS011;7208;49.826;6.004;2023-04-22T08:07:42;1.10;;;1.00;;
14247;SDS011;7208;49.826;6.004;2023-04-22T08:10:08;1.17;;;0.73;;
14247;SDS011;7208;49.826;6.004;2023-04-22T08:12:34;1.00;;;1.00;;
14247;SDS011;7208;49.826;6.004;2023-04-22T08:14:59;1.20;;;1.10;;
14247;SDS011;7208;49.826;6.004;2023-04-22T08:17:25;1.20;;;1.10;;
14247;SDS011;7208;49.826;6.004;2023-04-22T08:19:51;1.20;;;1.10;;
14247;SDS011;7208;49.826;6.004;2023-04-22T08:22:16;1.47;;;1.37;;
14247;SDS011;7208;49.826;6.004;2023-04-22T08:24:43;1.20;;;1.10;;
14247;SDS011;7208;49.826;6.004;2023-04-22T08:27:08;1.23;;;1.07;;
14247;SDS011;7208;49.826;6.004;2023-04-22T08:29:34;1.20;;;1.10;;
14247;SDS011;7208;49.826;6.004;2023-04-22T08:32:01;1.50;;;1.40;;
14247;SDS011;7208;49.826;6.004;2023-04-22T08:34:27;1.23;;;1.13;;
14247;SDS011;7208;49.826;6.004;2023-04-22T08:36:53;1.33;;;1.20;;
14247;SDS011;7208;49.826;6.004;2023-04-22T08:39:18;1.80;;;1.30;;
14247;SDS011;7208;49.826;6.004;2023-04-22T08:41:44;1.97;;;1.27;;
14247;SDS011;7208;49.826;6.004;2023-04-22T08:44:11;1.53;;;1.40;;
14247;SDS011;7208;49.826;6.004;2023-04-22T08:46:39;2.37;;;2.17;;
14247;SDS011;7208;49.826;6.004;2023-04-22T08:49:10;1.37;;;1.27;;
14247;SDS011;7208;49.826;6.004;2023-04-22T08:51:39;1.70;;;1.03;;
14247;SDS011;7208;49.826;6.004;2023-04-22T08:54:06;1.30;;;1.20;;
14247;SDS011;7208;49.826;6.004;2023-04-22T08:56:32;1.27;;;1.17;;
14247;SDS011;7208;49.826;6.004;2023-04-22T08:59:00;0.93;;;0.93;;
14247;SDS011;7208;49.826;6.004;2023-04-22T09:01:27;1.20;;;1.10;;
14247;SDS011;7208;49.826;6.004;2023-04-22T09:03:57;1.90;;;1.20;;
14247;SDS011;7208;49.826;6.004;2023-04-22T09:06:24;1.33;;;1.20;;
14247;SDS011;7208;49.826;6.004;2023-04-22T09:08:51;0.90;;;0.90;;
14247;SDS011;7208;49.826;6.004;2023-04-22T09:11:17;0.80;;;0.80;;
14247;SDS011;7208;49.826;6.004;2023-04-22T09:13:43;1.00;;;1.00;;
14247;SDS011;7208;49.826;6.004;2023-04-22T09:16:09;2.03;;;0.90;;
14247;SDS011;7208;49.826;6.004;2023-04-22T09:18:41;2.00;;;1.00;;
14247;SDS011;7208;49.826;6.004;2023-04-22T09:21:07;1.00;;;1.00;;
14247;SDS011;7208;49.826;6.004;2023-04-22T09:23:36;1.20;;;1.10;;
14247;SDS011;7208;49.826;6.004;2023-04-22T09:26:09;1.43;;;0.97;;
14247;SDS011;7208;49.826;6.004;2023-04-22T09:28:35;2.33;;;1.10;;
14247;SDS011;7208;49.826;6.004;2023-04-22T09:31:01;1.17;;;1.00;;
14247;SDS011;7208;49.826;6.004;2023-04-22T09:33:29;2.30;;;0.80;;
14247;SDS011;7208;49.826;6.004;2023-04-22T09:35:55;1.27;;;0.90;;
14247;SDS011;7208;49.826;6.004;2023-04-22T09:38:21;1.77;;;1.20;;
14247;SDS011;7208;49.826;6.004;2023-04-22T09:40:46;1.53;;;1.00;;
14247;SDS011;7208;49.826;6.004;2023-04-22T09:43:14;5.60;;;1.53;;
14247;SDS011;7208;49.826;6.004;2023-04-22T09:45:43;1.00;;;0.90;;
14247;SDS011;7208;49.826;6.004;2023-04-22T09:48:10;1.07;;;0.90;;
14247;SDS011;7208;49.826;6.004;2023-04-22T09:50:38;0.70;;;0.70;;
14247;SDS011;7208;49.826;6.004;2023-04-22T09:53:05;1.60;;;1.03;;
14247;SDS011;7208;49.826;6.004;2023-04-22T09:55:34;1.77;;;1.00;;
14247;SDS011;7208;49.826;6.004;2023-04-22T09:58:11;1.00;;;0.90;;
14247;SDS011;7208;49.826;6.004;2023-04-22T10:00:42;1.33;;;0.80;;
14247;SDS011;7208;49.826;6.004;2023-04-22T10:03:18;0.80;;;0.80;;
14247;SDS011;7208;49.826;6.004;2023-04-22T10:05:44;1.03;;;1.00;;
14247;SDS011;7208;49.826;6.004;2023-04-22T10:08:11;0.73;;;0.73;;
14247;SDS011;7208;49.826;6.004;2023-04-22T10:10:38;0.90;;;0.90;;
14247;SDS011;7208;49.826;6.004;2023-04-22T10:13:04;0.80;;;0.80;;
14247;SDS011;7208;49.826;6.004;2023-04-22T10:15:31;5.00;;;1.00;;
14247;SDS011;7208;49.826;6.004;2023-04-22T10:18:11;1.00;;;0.80;;
14247;SDS011;7208;49.826;6.004;2023-04-22T10:20:41;1.17;;;1.10;;
14247;SDS011;7208;49.826;6.004;2023-04-22T10:23:42;1.10;;;1.00;;
14247;SDS011;7208;49.826;6.004;2023-04-22T10:25:59;1.30;;;0.80;;
14247;SDS011;7208;49.826;6.004;2023-04-22T10:28:26;1.20;;;0.80;;
14247;SDS011;7208;49.826;6.004;2023-04-22T10:30:53;0.93;;;0.93;;
14247;SDS011;7208;49.826;6.004;2023-04-22T10:38:39;1.37;;;0.90;;
14247;SDS011;7208;49.826;6.004;2023-04-22T10:41:05;1.00;;;1.00;;
14247;SDS011;7208;49.826;6.004;2023-04-22T10:43:40;1.20;;;0.90;;
14247;SDS011;7208;49.826;6.004;2023-04-22T10:48:56;2.10;;;1.00;;
14247;SDS011;7208;49.826;6.004;2023-04-22T10:51:41;1.40;;;1.00;;
14247;SDS011;7208;49.826;6.004;2023-04-22T10:59:29;0.90;;;0.90;;
14247;SDS011;7208;49.826;6.004;2023-04-22T11:02:01;0.70;;;0.70;;
14247;SDS011;7208;49.826;6.004;2023-04-22T11:04:31;1.13;;;0.90;;
14247;SDS011;7208;49.826;6.004;2023-04-22T11:10:00;1.07;;;0.70;;
14247;SDS011;7208;49.826;6.004;2023-04-22T11:17:48;0.87;;;0.70;;
14247;SDS011;7208;49.826;6.004;2023-04-22T11:20:16;0.90;;;0.90;;
14247;SDS011;7208;49.826;6.004;2023-04-22T11:22:43;0.77;;;0.77;;
14247;SDS011;7208;49.826;6.004;2023-04-22T11:25:10;0.70;;;0.70;;
14247;SDS011;7208;49.826;6.004;2023-04-22T11:27:36;1.40;;;0.90;;
14247;SDS011;7208;49.826;6.004;2023-04-22T11:30:07;1.63;;;0.90;;
14247;SDS011;7208;49.826;6.004;2023-04-22T11:32:46;0.70;;;0.67;;
14247;SDS011;7208;49.826;6.004;2023-04-22T11:35:17;2.33;;;1.40;;
14247;SDS011;7208;49.826;6.004;2023-04-22T11:37:52;2.23;;;1.23;;
14247;SDS011;7208;49.826;6.004;2023-04-22T11:40:30;1.63;;;1.10;;
14247;SDS011;7208;49.826;6.004;2023-04-22T11:42:58;1.83;;;1.83;;
14247;SDS011;7208;49.826;6.004;2023-04-22T11:45:26;1.03;;;1.03;;
14247;SDS011;7208;49.826;6.004;2023-04-22T11:47:54;1.03;;;0.90;;
14247;SDS011;7208;49.826;6.004;2023-04-22T11:50:21;1.93;;;0.73;;
14247;SDS011;7208;49.826;6.004;2023-04-22T11:52:59;0.90;;;0.90;;
14247;SDS011;7208;49.826;6.004;2023-04-22T11:55:26;1.77;;;1.10;;
14247;SDS011;7208;49.826;6.004;2023-04-22T11:58:04;1.50;;;1.20;;
14247;SDS011;7208;49.826;6.004;2023-04-22T12:00:34;2.57;;;1.37;;
14247;SDS011;7208;49.826;6.004;2023-04-22T12:03:17;3.23;;;1.30;;
14247;SDS011;7208;49.826;6.004;2023-04-22T12:05:57;1.20;;;1.10;;
14247;SDS011;7208;49.826;6.004;2023-04-22T12:08:33;1.23;;;1.13;;
14247;SDS011;7208;49.826;6.004;2023-04-22T12:11:01;2.87;;;2.77;;
14247;SDS011;7208;49.826;6.004;2023-04-22T12:13:31;1.37;;;1.23;;
14247;SDS011;7208;49.826;6.004;2023-04-22T12:16:01;1.53;;;1.43;;
14247;SDS011;7208;49.826;6.004;2023-04-22T12:18:35;1.53;;;1.43;;
14247;SDS011;7208;49.826;6.004;2023-04-22T12:23:40;2.47;;;1.57;;
14247;SDS011;7208;49.826;6.004;2023-04-22T12:26:10;1.40;;;1.30;;
14247;SDS011;7208;49.826;6.004;2023-04-22T12:28:37;1.67;;;1.57;;
14247;SDS011;7208;49.826;6.004;2023-04-22T12:31:03;1.57;;;1.47;;
14247;SDS011;7208;49.826;6.004;2023-04-22T12:33:29;2.40;;;1.70;;
14247;SDS011;7208;49.826;6.004;2023-04-22T12:35:55;1.77;;;1.63;;
14247;SDS011;7208;49.826;6.004;2023-04-22T12:38:21;1.90;;;1.70;;
14247;SDS011;7208;49.826;6.004;2023-04-22T12:40:47;1.90;;;1.53;;
14247;SDS011;7208;49.826;6.004;2023-04-22T12:43:12;1.83;;;1.70;;
14247;SDS011;7208;49.826;6.004;2023-04-22T12:45:38;4.40;;;1.93;;
14247;SDS011;7208;49.826;6.004;2023-04-22T12:48:04;2.17;;;2.00;;
14247;SDS011;7208;49.826;6.004;2023-04-22T12:50:30;2.70;;;1.83;;
14247;SDS011;7208;49.826;6.004;2023-04-22T12:52:56;2.57;;;1.90;;
14247;SDS011;7208;49.826;6.004;2023-04-22T12:55:21;2.00;;;1.90;;
14247;SDS011;7208;49.826;6.004;2023-04-22T12:57:47;2.20;;;2.00;;
14247;SDS011;7208;49.826;6.004;2023-04-22T13:00:15;2.40;;;2.17;;
14247;SDS011;7208;49.826;6.004;2023-04-22T13:02:41;2.00;;;1.80;;
14247;SDS011;7208;49.826;6.004;2023-04-22T13:05:08;2.27;;;1.83;;
14247;SDS011;7208;49.826;6.004;2023-04-22T13:07:35;1.67;;;1.57;;
14247;SDS011;7208;49.826;6.004;2023-04-22T13:10:01;2.03;;;1.90;;
14247;SDS011;7208;49.826;6.004;2023-04-22T13:12:27;2.17;;;1.67;;
14247;SDS011;7208;49.826;6.004;2023-04-22T13:14:53;1.63;;;1.53;;
14247;SDS011;7208;49.826;6.004;2023-04-22T13:17:18;3.80;;;1.80;;
14247;SDS011;7208;49.826;6.004;2023-04-22T13:19:45;1.80;;;1.63;;
14247;SDS011;7208;49.826;6.004;2023-04-22T13:22:12;2.00;;;1.50;;
14247;SDS011;7208;49.826;6.004;2023-04-22T13:24:38;1.70;;;1.60;;
14247;SDS011;7208;49.826;6.004;2023-04-22T13:27:04;2.27;;;2.03;;
14247;SDS011;7208;49.826;6.004;2023-04-22T13:29:31;2.40;;;1.70;;
14247;SDS011;7208;49.826;6.004;2023-04-22T13:31:57;1.67;;;1.57;;
14247;SDS011;7208;49.826;6.004;2023-04-22T13:34:23;2.50;;;1.53;;
14247;SDS011;7208;49.826;6.004;2023-04-22T13:36:48;4.50;;;1.83;;
14247;SDS011;7208;49.826;6.004;2023-04-22T13:39:14;2.10;;;1.63;;
14247;SDS011;7208;49.826;6.004;2023-04-22T13:41:41;1.83;;;1.60;;
14247;SDS011;7208;49.826;6.004;2023-04-22T13:44:10;1.93;;;1.73;;
14247;SDS011;7208;49.826;6.004;2023-04-22T13:46:36;2.00;;;1.80;;
14247;SDS011;7208;49.826;6.004;2023-04-22T13:49:02;2.17;;;1.77;;
14247;SDS011;7208;49.826;6.004;2023-04-22T13:51:29;3.60;;;1.90;;
14247;SDS011;7208;49.826;6.004;2023-04-22T13:53:55;3.23;;;2.20;;
14247;SDS011;7208;49.826;6.004;2023-04-22T13:56:22;3.20;;;2.53;;
14247;SDS011;7208;49.826;6.004;2023-04-22T13:58:48;3.77;;;2.20;;
14247;SDS011;7208;49.826;6.004;2023-04-22T14:01:14;2.73;;;2.17;;
14247;SDS011;7208;49.826;6.004;2023-04-22T14:03:40;4.13;;;2.20;;
14247;SDS011;7208;49.826;6.004;2023-04-22T14:06:06;3.07;;;2.23;;
14247;SDS011;7208;49.826;6.004;2023-04-22T14:08:32;2.27;;;2.07;;
14247;SDS011;7208;49.826;6.004;2023-04-22T14:10:58;2.97;;;2.23;;
14247;SDS011;7208;49.826;6.004;2023-04-22T14:13:25;2.30;;;2.10;;
14247;SDS011;7208;49.826;6.004;2023-04-22T14:15:51;2.20;;;2.00;;
14247;SDS011;7208;49.826;6.004;2023-04-22T14:18:16;4.13;;;3.23;;
14247;SDS011;7208;49.826;6.004;2023-04-22T14:20:42;2.77;;;2.57;;
14247;SDS011;7208;49.826;6.004;2023-04-22T14:23:09;4.70;;;2.33;;
14247;SDS011;7208;49.826;6.004;2023-04-22T14:25:35;3.90;;;3.43;;
14247;SDS011;7208;49.826;6.004;2023-04-22T14:28:01;3.93;;;2.73;;
14247;SDS011;7208;49.826;6.004;2023-04-22T14:30:27;3.13;;;2.90;;
14247;SDS011;7208;49.826;6.004;2023-04-22T14:32:53;2.80;;;2.60;;
14247;SDS011;7208;49.826;6.004;2023-04-22T14:35:19;2.47;;;2.10;;
14247;SDS011;7208;49.826;6.004;2023-04-22T14:37:45;2.90;;;2.70;;
14247;SDS011;7208;49.826;6.004;2023-04-22T14:40:11;3.10;;;2.83;;
14247;SDS011;7208;49.826;6.004;2023-04-22T14:42:37;4.37;;;3.57;;
14247;SDS011;7208;49.826;6.004;2023-04-22T14:45:03;3.03;;;2.83;;
14247;SDS011;7208;49.826;6.004;2023-04-22T14:47:29;3.40;;;3.00;;
14247;SDS011;7208;49.826;6.004;2023-04-22T14:49:54;4.60;;;2.87;;
14247;SDS011;7208;49.826;6.004;2023-04-22T14:52:20;4.07;;;3.43;;
14247;SDS011;7208;49.826;6.004;2023-04-22T14:54:46;3.33;;;3.03;;
14247;SDS011;7208;49.826;6.004;2023-04-22T14:57:12;5.83;;;3.27;;
14247;SDS011;7208;49.826;6.004;2023-04-22T14:59:38;3.23;;;2.97;;
14247;SDS011;7208;49.826;6.004;2023-04-22T15:02:04;3.87;;;3.63;;
14247;SDS011;7208;49.826;6.004;2023-04-22T15:04:30;4.43;;;2.90;;
14247;SDS011;7208;49.826;6.004;2023-04-22T15:06:55;3.93;;;3.27;;
14247;SDS011;7208;49.826;6.004;2023-04-22T15:09:24;3.57;;;3.27;;
14247;SDS011;7208;49.826;6.004;2023-04-22T15:11:51;3.87;;;3.57;;
14247;SDS011;7208;49.826;6.004;2023-04-22T15:14:19;4.13;;;3.30;;
14247;SDS011;7208;49.826;6.004;2023-04-22T15:16:45;4.43;;;3.13;;
14247;SDS011;7208;49.826;6.004;2023-04-22T15:19:11;4.30;;;3.60;;
14247;SDS011;7208;49.826;6.004;2023-04-22T15:21:37;6.00;;;3.17;;